createdAt,value
2019-04-14T00:00:51.906Z,20.90
2019-04-14T00:01:52.299Z,20.90
2019-04-14T00:02:51.858Z,21.40
2019-04-14T00:03:52.238Z,23.10
2019-04-14T00:04:52.744Z,21.10
2019-04-14T00:05:52.121Z,22.40
2019-04-14T00:06:52.588Z,22.30
2019-04-14T00:07:51.817Z,22.30
2019-04-14T00:08:52.240Z,22.80
2019-04-14T00:09:52.059Z,22.70
2019-04-14T00:10:52.858Z,22.30
2019-04-14T00:11:52.701Z,21.60
2019-04-14T00:12:51.639Z,21.70
2019-04-14T00:13:52.425Z,22.80
2019-04-14T00:14:51.594Z,22.00
2019-04-14T00:15:53.168Z,23.30
2019-04-14T00:16:51.551Z,23.20
2019-04-14T00:17:52.542Z,23.00
2019-04-14T00:18:51.507Z,24.30
2019-04-14T00:19:52.416Z,24.00
2019-04-14T00:20:51.463Z,24.10
2019-04-14T00:21:52.239Z,23.80
2019-04-14T00:22:51.421Z,25.40
2019-04-14T00:23:52.236Z,24.30
2019-04-14T00:24:51.373Z,26.90
2019-04-14T00:25:52.228Z,25.40
2019-04-14T00:26:51.345Z,24.10
2019-04-14T00:27:52.191Z,24.70
2019-04-14T00:28:51.307Z,25.00
2019-04-14T00:29:52.399Z,26.60
2019-04-14T00:30:51.305Z,25.90
2019-04-14T00:31:53.721Z,23.40
2019-04-14T00:32:51.200Z,24.10
2019-04-14T00:33:52.099Z,25.50
2019-04-14T00:34:51.157Z,24.20
2019-04-14T00:35:51.601Z,25.90
2019-04-14T00:36:52.265Z,24.90
2019-04-14T00:37:51.163Z,24.60
2019-04-14T00:38:52.003Z,24.90
2019-04-14T00:39:51.205Z,26.50
2019-04-14T00:40:51.826Z,25.20
2019-04-14T00:41:55.532Z,25.20
2019-04-14T00:42:51.586Z,25.10
2019-04-14T00:43:50.972Z,25.00
2019-04-14T00:44:51.833Z,24.50
2019-04-14T00:45:53.585Z,26.90
2019-04-14T00:46:51.702Z,25.60
2019-04-14T00:47:59.550Z,25.00
2019-04-14T00:48:51.800Z,25.60
2019-04-14T00:49:50.978Z,24.00
2019-04-14T00:50:51.752Z,25.60
2019-04-14T00:51:50.883Z,25.10
2019-04-14T00:52:50.757Z,25.70
2019-04-14T00:53:51.299Z,25.70
2019-04-14T00:54:50.717Z,24.70
2019-04-14T00:55:51.127Z,25.80
2019-04-14T00:56:51.755Z,26.40
2019-04-14T00:57:50.917Z,26.40
2019-04-14T00:58:51.752Z,25.70
2019-04-14T00:59:50.899Z,26.20
2019-04-14T01:00:51.769Z,26.10
2019-04-14T01:01:50.557Z,26.00
2019-04-14T01:02:51.593Z,24.50
2019-04-14T01:03:50.574Z,24.90
2019-04-14T01:04:51.320Z,26.30
2019-04-14T01:05:50.465Z,26.20
2019-04-14T01:06:51.147Z,27.50
2019-04-14T01:07:50.429Z,26.70
2019-04-14T01:08:51.170Z,25.50
2019-04-14T01:09:51.047Z,26.40
2019-04-14T01:10:51.869Z,26.10
2019-04-14T01:11:51.009Z,26.10
2019-04-14T01:12:50.310Z,27.20
2019-04-14T01:13:50.807Z,26.40
2019-04-14T01:14:50.264Z,26.40
2019-04-14T01:15:58.679Z,27.30
2019-04-14T01:16:50.220Z,27.40
2019-04-14T01:17:50.679Z,26.00
2019-04-14T01:18:51.474Z,27.30
2019-04-14T01:19:50.621Z,28.10
2019-04-14T01:20:51.325Z,28.20
2019-04-14T01:21:50.342Z,27.90
2019-04-14T01:22:51.009Z,27.70
2019-04-14T01:23:50.218Z,26.70
2019-04-14T01:24:51.053Z,28.10
2019-04-14T01:25:50.025Z,27.50
2019-04-14T01:26:50.673Z,27.70
2019-04-14T01:27:49.975Z,28.00
2019-04-14T01:28:50.451Z,27.70
2019-04-14T01:29:49.929Z,28.10
2019-04-14T01:30:50.160Z,27.90
2019-04-14T01:31:49.889Z,26.40
2019-04-14T01:32:50.129Z,27.50
2019-04-14T01:33:51.117Z,27.40
2019-04-14T01:34:52.042Z,26.90
2019-04-14T01:35:50.912Z,27.60
2019-04-14T01:36:49.779Z,25.90
2019-04-14T01:37:50.731Z,27.30
2019-04-14T01:38:49.732Z,26.90
2019-04-14T01:39:50.225Z,26.80
2019-04-14T01:40:50.919Z,26.80
2019-04-14T01:41:49.961Z,26.70
2019-04-14T01:42:50.629Z,27.60
2019-04-14T01:43:49.691Z,26.50
2019-04-14T01:44:50.335Z,26.00
2019-04-14T01:46:04.319Z,26.60
2019-04-14T01:46:49.870Z,25.50
2019-04-14T01:47:49.537Z,26.50
2019-04-14T01:48:49.632Z,26.00
2019-04-14T01:49:49.486Z,26.40
2019-04-14T01:50:49.620Z,27.70
2019-04-14T01:51:50.633Z,26.50
2019-04-14T01:52:50.169Z,26.30
2019-04-14T01:53:49.398Z,26.60
2019-04-14T01:54:49.502Z,26.30
2019-04-14T01:55:50.447Z,26.60
2019-04-14T01:56:49.330Z,27.50
2019-04-14T01:57:50.296Z,26.10
2019-04-14T01:58:49.290Z,26.70
2019-04-14T01:59:50.339Z,28.00
2019-04-14T02:00:49.479Z,26.90
2019-04-14T02:01:49.937Z,27.20
2019-04-14T02:02:49.200Z,26.30
2019-04-14T02:03:49.873Z,27.00
2019-04-14T02:04:49.152Z,25.80
2019-04-14T02:05:49.600Z,25.90
2019-04-14T02:06:49.105Z,26.10
2019-04-14T02:07:49.432Z,26.10
2019-04-14T02:08:50.138Z,26.60
2019-04-14T02:09:49.052Z,26.50
2019-04-14T02:10:49.927Z,27.40
2019-04-14T02:11:48.999Z,26.30
2019-04-14T02:12:49.598Z,26.80
2019-04-14T02:13:48.951Z,27.90
2019-04-14T02:14:49.499Z,26.40
2019-04-14T02:15:48.910Z,26.60
2019-04-14T02:16:54.092Z,27.30
2019-04-14T02:17:50.173Z,27.50
2019-04-14T02:18:51.712Z,25.20
2019-04-14T02:19:48.860Z,26.40
2019-04-14T02:20:49.129Z,26.10
2019-04-14T02:21:49.918Z,25.40
2019-04-14T02:22:48.750Z,25.50
2019-04-14T02:23:49.815Z,25.20
2019-04-14T02:24:48.706Z,26.30
2019-04-14T02:25:49.401Z,26.00
2019-04-14T02:26:48.661Z,25.30
2019-04-14T02:27:49.352Z,25.20
2019-04-14T02:28:48.615Z,25.30
2019-04-14T02:29:49.512Z,26.50
2019-04-14T02:31:00.247Z,25.60
2019-04-14T02:32:18.560Z,25.10
2019-04-14T02:33:17.286Z,25.80
2019-04-14T02:34:21.995Z,24.90
2019-04-14T02:36:21.639Z,25.60
2019-04-14T02:37:28.309Z,25.00
2019-04-14T02:38:23.385Z,23.60
2019-04-14T02:39:35.903Z,24.80
2019-04-14T02:40:18.480Z,24.50
2019-04-14T02:41:43.791Z,23.60
2019-04-14T02:43:23.862Z,24.20
2019-04-14T02:44:24.134Z,25.60
2019-04-14T02:45:19.296Z,26.20
2019-04-14T02:46:10.757Z,24.70
2019-04-14T02:47:37.951Z,24.90
2019-04-14T02:48:25.833Z,25.40
2019-04-14T02:49:16.042Z,25.90
2019-04-14T02:50:20.287Z,25.90
2019-04-14T02:52:19.834Z,25.10
2019-04-14T02:53:19.082Z,26.70
2019-04-14T02:54:11.883Z,25.40
2019-04-14T02:55:12.212Z,26.30
2019-04-14T02:56:15.583Z,25.40
2019-04-14T02:57:19.041Z,25.70
2019-04-14T02:58:20.648Z,24.30
2019-04-14T02:59:16.226Z,25.40
2019-04-14T03:00:19.664Z,25.30
2019-04-14T03:01:24.187Z,26.00
2019-04-14T03:02:23.126Z,24.50
2019-04-14T03:03:16.512Z,25.30
2019-04-14T03:04:17.142Z,26.90
2019-04-14T03:05:09.395Z,25.80
2019-04-14T03:06:14.500Z,25.90
2019-04-14T03:07:16.281Z,25.60
2019-04-14T03:08:22.258Z,25.00
2019-04-14T03:10:20.393Z,26.20
2019-04-14T03:11:17.431Z,25.30
2019-04-14T03:12:19.169Z,25.20
2019-04-14T03:13:29.362Z,26.00
2019-04-14T03:14:19.368Z,25.20
2019-04-14T03:15:17.654Z,25.80
2019-04-14T03:16:23.297Z,25.40
2019-04-14T03:17:21.395Z,25.00
2019-04-14T03:19:14.553Z,25.00
2019-04-14T03:20:20.503Z,24.90
2019-04-14T03:21:30.576Z,26.70
2019-04-14T03:22:26.126Z,25.40
2019-04-14T03:23:19.286Z,26.70
2019-04-14T03:24:10.926Z,25.20
2019-04-14T03:25:00.473Z,25.10
2019-04-14T03:26:11.770Z,24.90
2019-04-14T03:27:13.617Z,24.70
2019-04-14T03:28:12.207Z,24.20
2019-04-14T03:29:19.562Z,25.10
2019-04-14T03:30:33.516Z,24.30
2019-04-14T03:32:23.672Z,25.20
2019-04-14T03:33:32.141Z,24.90
2019-04-14T03:35:47.286Z,26.10
2019-04-14T03:36:43.987Z,24.80
2019-04-14T03:37:39.595Z,26.30
2019-04-14T03:38:18.275Z,25.90
2019-04-14T03:39:36.956Z,26.10
2019-04-14T03:40:08.465Z,25.00
2019-04-14T03:41:16.777Z,25.20
2019-04-14T03:43:19.463Z,25.00
2019-04-14T03:44:18.059Z,25.30
2019-04-14T03:45:14.428Z,24.50
2019-04-14T03:46:23.597Z,26.00
2019-04-14T03:47:13.886Z,25.60
2019-04-14T03:50:17.281Z,26.30
2019-04-14T03:52:13.073Z,25.40
2019-04-14T03:53:15.885Z,24.40
2019-04-14T03:54:20.298Z,24.70
2019-04-14T03:55:02.683Z,25.60
2019-04-14T03:55:54.171Z,24.20
2019-04-14T03:56:46.845Z,24.30
2019-04-14T03:57:47.632Z,24.70
2019-04-14T03:58:46.617Z,23.60
2019-04-14T03:59:47.715Z,24.30
2019-04-14T04:00:46.589Z,23.80
2019-04-14T04:01:47.762Z,24.00
2019-04-14T04:02:46.727Z,24.50
2019-04-14T04:03:46.450Z,25.00
2019-04-14T04:04:46.761Z,23.90
2019-04-14T04:05:46.402Z,24.70
2019-04-14T04:06:46.485Z,23.80
2019-04-14T04:07:47.426Z,24.50
2019-04-14T04:08:46.495Z,24.60
2019-04-14T04:09:47.475Z,24.00
2019-04-14T04:10:46.576Z,24.50
2019-04-14T04:11:47.555Z,24.50
2019-04-14T04:12:46.534Z,24.20
2019-04-14T04:13:46.225Z,24.10
2019-04-14T04:14:46.425Z,25.50
2019-04-14T04:15:46.176Z,24.40
2019-04-14T04:16:46.249Z,23.30
2019-04-14T04:17:47.198Z,24.70
2019-04-14T04:18:56.463Z,24.70
2019-04-14T04:19:46.985Z,24.50
2019-04-14T04:20:46.064Z,24.60
2019-04-14T04:21:46.625Z,24.60
2019-04-14T04:22:46.025Z,24.80
2019-04-14T04:23:46.798Z,25.00
2019-04-14T04:24:45.978Z,24.70
2019-04-14T04:25:46.596Z,25.50
2019-04-14T04:26:47.152Z,25.30
2019-04-14T04:27:46.172Z,25.00
2019-04-14T04:28:47.086Z,25.30
2019-04-14T04:29:46.264Z,24.60
2019-04-14T04:30:46.924Z,23.60
2019-04-14T04:31:46.164Z,24.50
2019-04-14T04:32:46.845Z,22.60
2019-04-14T04:33:45.849Z,25.40
2019-04-14T04:34:46.633Z,24.30
2019-04-14T04:35:45.808Z,24.10
2019-04-14T04:36:46.381Z,25.20
2019-04-14T04:37:45.671Z,24.70
2019-04-14T04:38:46.336Z,23.90
2019-04-14T04:39:45.624Z,23.90
2019-04-14T04:40:46.135Z,25.00
2019-04-14T04:41:45.581Z,24.00
2019-04-14T04:42:45.824Z,23.80
2019-04-14T04:43:45.534Z,23.60
2019-04-14T04:44:46.350Z,24.90
2019-04-14T04:45:45.484Z,23.80
2019-04-14T04:46:45.983Z,24.40
2019-04-14T04:47:45.439Z,23.60
2019-04-14T04:48:58.244Z,24.60
2019-04-14T04:49:45.397Z,26.10
2019-04-14T04:50:45.434Z,24.70
2019-04-14T04:51:46.436Z,24.40
2019-04-14T04:52:45.325Z,24.30
2019-04-14T04:53:46.207Z,24.70
2019-04-14T04:54:45.284Z,24.60
2019-04-14T04:55:46.061Z,24.80
2019-04-14T04:56:45.232Z,23.60
2019-04-14T04:57:45.994Z,24.30
2019-04-14T04:58:45.647Z,24.90
2019-04-14T04:59:45.346Z,25.90
2019-04-14T05:00:47.351Z,25.20
2019-04-14T05:01:45.222Z,24.70
2019-04-14T05:02:46.063Z,24.50
2019-04-14T05:03:45.070Z,24.10
2019-04-14T05:04:46.026Z,23.90
2019-04-14T05:05:45.044Z,23.00
2019-04-14T05:06:45.904Z,22.40
2019-04-14T05:07:44.978Z,23.90
2019-04-14T05:08:45.552Z,23.80
2019-04-14T05:09:44.947Z,23.60
2019-04-14T05:10:45.702Z,24.30
2019-04-14T05:11:44.889Z,23.90
2019-04-14T05:12:45.662Z,23.60
2019-04-14T05:13:44.840Z,22.70
2019-04-14T05:14:45.580Z,24.80
2019-04-14T05:15:44.799Z,23.10
2019-04-14T05:16:44.773Z,24.80
2019-04-14T05:17:45.243Z,24.10
2019-04-14T05:18:44.724Z,25.00
2019-04-14T05:19:45.470Z,24.30
2019-04-14T05:20:44.680Z,23.20
2019-04-14T05:21:45.246Z,24.30
2019-04-14T05:22:44.635Z,24.00
2019-04-14T05:23:45.345Z,24.20
2019-04-14T05:24:44.604Z,25.30
2019-04-14T05:25:45.204Z,23.50
2019-04-14T05:26:44.545Z,24.40
2019-04-14T05:27:45.193Z,24.00
2019-04-14T05:28:44.495Z,24.40
2019-04-14T05:29:45.080Z,23.90
2019-04-14T05:30:45.723Z,24.80
2019-04-14T05:31:44.748Z,23.10
2019-04-14T05:32:45.449Z,23.70
2019-04-14T05:33:44.778Z,22.40
2019-04-14T05:34:45.408Z,22.70
2019-04-14T05:35:44.567Z,22.20
2019-04-14T05:36:45.364Z,22.90
2019-04-14T05:37:44.435Z,22.90
2019-04-14T05:38:45.017Z,23.60
2019-04-14T05:39:44.245Z,22.30
2019-04-14T05:40:45.066Z,23.30
2019-04-14T05:41:58.983Z,23.40
2019-04-14T05:42:45.034Z,22.20
2019-04-14T05:43:51.427Z,23.50
2019-04-14T05:44:44.824Z,22.70
2019-04-14T05:45:44.107Z,23.40
2019-04-14T05:46:44.681Z,22.90
2019-04-14T05:47:44.088Z,23.40
2019-04-14T05:48:44.653Z,23.10
2019-04-14T05:49:48.262Z,23.60
2019-04-14T05:50:44.405Z,23.40
2019-04-14T05:51:43.975Z,22.90
2019-04-14T05:52:44.721Z,21.40
2019-04-14T05:53:43.954Z,23.00
2019-04-14T05:54:44.699Z,23.10
2019-04-14T05:55:43.894Z,22.20
2019-04-14T05:56:44.734Z,22.80
2019-04-14T05:57:43.881Z,22.00
2019-04-14T05:58:44.758Z,22.20
2019-04-14T05:59:44.104Z,22.10
2019-04-14T06:00:43.821Z,22.70
2019-04-14T06:01:44.288Z,21.60
2019-04-14T06:02:44.152Z,21.00
2019-04-14T06:03:43.714Z,21.90
2019-04-14T06:04:43.992Z,21.20
2019-04-14T06:05:44.927Z,21.30
2019-04-14T06:06:43.639Z,21.30
2019-04-14T06:07:43.620Z,20.70
2019-04-14T06:08:43.598Z,21.40
2019-04-14T06:09:43.573Z,20.50
2019-04-14T06:10:43.550Z,20.50
2019-04-14T06:11:43.530Z,20.20
2019-04-14T06:12:43.505Z,20.30
2019-04-14T06:13:43.499Z,21.30
2019-04-14T06:14:43.459Z,20.40
2019-04-14T06:15:43.435Z,20.20
2019-04-14T06:16:43.420Z,21.10
2019-04-14T06:17:43.393Z,21.40
2019-04-14T06:18:43.370Z,20.80
2019-04-14T06:19:43.348Z,21.60
2019-04-14T06:20:43.333Z,19.70
2019-04-14T06:21:43.305Z,19.60
2019-04-14T06:22:43.291Z,20.00
2019-04-14T06:23:43.261Z,20.10
2019-04-14T06:24:43.238Z,19.40
2019-04-14T06:25:43.218Z,19.30
2019-04-14T06:26:43.196Z,21.00
2019-04-14T06:27:43.173Z,19.40
2019-04-14T06:28:43.152Z,20.00
2019-04-14T06:29:43.128Z,19.00
2019-04-14T06:30:43.107Z,19.30
2019-04-14T06:31:43.085Z,19.50
2019-04-14T06:32:43.070Z,19.30
2019-04-14T06:33:43.039Z,19.60
2019-04-14T06:34:43.022Z,19.70
2019-04-14T06:35:43.002Z,19.60
2019-04-14T06:36:42.981Z,19.20
2019-04-14T06:37:43.267Z,19.90
2019-04-14T06:38:42.934Z,19.10
2019-04-14T06:39:42.909Z,20.10
2019-04-14T06:40:42.889Z,20.90
2019-04-14T06:41:42.894Z,20.50
2019-04-14T06:42:42.848Z,20.10
2019-04-14T06:43:48.643Z,20.20
2019-04-14T06:44:42.803Z,20.20
2019-04-14T06:45:42.795Z,19.60
2019-04-14T06:46:42.760Z,19.60
2019-04-14T06:47:42.746Z,19.20
2019-04-14T06:48:42.730Z,19.90
2019-04-14T06:49:48.920Z,19.00
2019-04-14T06:50:42.683Z,18.60
2019-04-14T06:51:42.668Z,18.90
2019-04-14T06:52:42.647Z,18.00
2019-04-14T06:53:42.637Z,18.10
2019-04-14T06:54:42.619Z,18.10
2019-04-14T06:55:42.597Z,17.30
2019-04-14T06:56:42.581Z,17.40
2019-04-14T06:57:42.567Z,17.40
2019-04-14T06:58:42.552Z,17.70
2019-04-14T06:59:42.540Z,16.90
2019-04-14T07:00:42.517Z,17.60
2019-04-14T07:01:42.501Z,17.20
2019-04-14T07:02:42.697Z,16.30
2019-04-14T07:03:42.469Z,16.50
2019-04-14T07:04:42.453Z,17.80
2019-04-14T07:05:42.451Z,16.60
2019-04-14T07:06:42.435Z,16.20
2019-04-14T07:07:42.411Z,16.80
2019-04-14T07:08:42.410Z,16.30
2019-04-14T07:09:42.385Z,16.00
2019-04-14T07:10:42.375Z,16.00
2019-04-14T07:11:42.365Z,16.40
2019-04-14T07:12:43.185Z,16.60
2019-04-14T07:13:42.331Z,16.70
2019-04-14T07:14:42.324Z,15.50
2019-04-14T07:15:42.321Z,15.80
2019-04-14T07:16:42.292Z,15.90
2019-04-14T07:17:42.279Z,16.20
2019-04-14T07:18:42.267Z,16.70
2019-04-14T07:19:42.256Z,16.50
2019-04-14T07:20:42.247Z,15.10
2019-04-14T07:21:42.233Z,16.00
2019-04-14T07:22:42.230Z,16.70
2019-04-14T07:23:42.218Z,16.60
2019-04-14T07:24:42.218Z,16.30
2019-04-14T07:25:42.191Z,16.10
2019-04-14T07:26:42.187Z,16.30
2019-04-14T07:27:42.174Z,16.40
2019-04-14T07:28:42.162Z,16.80
2019-04-14T07:29:42.527Z,16.80
2019-04-14T07:30:42.142Z,16.50
2019-04-14T07:31:42.135Z,16.80
2019-04-14T07:32:42.126Z,16.00
2019-04-14T07:33:42.113Z,16.30
2019-04-14T07:34:42.097Z,16.30
2019-04-14T07:35:42.089Z,16.40
2019-04-14T07:36:42.081Z,16.10
2019-04-14T07:37:42.070Z,15.70
2019-04-14T07:38:42.063Z,16.60
2019-04-14T07:39:42.056Z,16.50
2019-04-14T07:40:42.055Z,16.50
2019-04-14T07:41:42.036Z,16.90
2019-04-14T07:42:42.024Z,16.20
2019-04-14T07:43:42.023Z,16.00
2019-04-14T07:44:42.007Z,16.30
2019-04-14T07:45:41.997Z,16.00
2019-04-14T07:46:41.989Z,17.10
2019-04-14T07:47:41.982Z,16.20
2019-04-14T07:48:41.973Z,17.20
2019-04-14T07:49:41.981Z,15.40
2019-04-14T07:50:41.960Z,16.60
2019-04-14T07:51:41.954Z,16.70
2019-04-14T07:52:41.940Z,16.30
2019-04-14T07:53:41.935Z,15.70
2019-04-14T07:54:41.945Z,15.80
2019-04-14T07:55:41.923Z,15.70
2019-04-14T07:56:41.916Z,15.20
2019-04-14T07:57:41.906Z,15.50
2019-04-14T07:58:41.902Z,15.70
2019-04-14T07:59:41.896Z,15.40
2019-04-14T08:00:41.890Z,15.40
2019-04-14T08:01:41.882Z,16.50
2019-04-14T08:02:41.875Z,15.10
2019-04-14T08:03:41.867Z,18.60
2019-04-14T08:04:41.862Z,18.80
2019-04-14T08:05:41.866Z,18.10
2019-04-14T08:06:41.862Z,15.80
2019-04-14T08:07:41.849Z,19.50
2019-04-14T08:08:41.852Z,17.10
2019-04-14T08:09:41.841Z,15.10
2019-04-14T08:10:41.829Z,15.20
2019-04-14T08:11:41.830Z,15.90
2019-04-14T08:12:41.829Z,15.50
2019-04-14T08:13:41.832Z,14.40
2019-04-14T08:14:41.807Z,14.80
2019-04-14T08:15:41.809Z,14.80
2019-04-14T08:16:41.798Z,14.90
2019-04-14T08:17:43.594Z,15.10
2019-04-14T08:18:41.798Z,14.80
2019-04-14T08:19:41.783Z,14.80
2019-04-14T08:20:41.783Z,14.80
2019-04-14T08:21:41.772Z,15.10
2019-04-14T08:22:41.767Z,14.60
2019-04-14T08:23:41.769Z,14.80
2019-04-14T08:24:41.767Z,15.10
2019-04-14T08:25:41.754Z,14.60
2019-04-14T08:26:41.756Z,14.10
2019-04-14T08:27:41.744Z,15.30
2019-04-14T08:28:41.739Z,14.10
2019-04-14T08:29:41.733Z,14.40
2019-04-14T08:30:41.735Z,14.60
2019-04-14T08:31:41.728Z,13.60
2019-04-14T08:32:41.723Z,14.30
2019-04-14T08:33:41.724Z,14.80
2019-04-14T08:34:41.715Z,14.40
2019-04-14T08:35:41.710Z,14.20
2019-04-14T08:36:41.712Z,15.40
2019-04-14T08:37:41.705Z,15.30
2019-04-14T08:38:41.702Z,14.70
2019-04-14T08:39:41.702Z,13.80
2019-04-14T08:40:41.692Z,18.30
2019-04-14T08:41:41.687Z,16.80
2019-04-14T08:42:41.682Z,14.70
2019-04-14T08:43:41.679Z,15.10
2019-04-14T08:44:41.688Z,14.50
2019-04-14T08:45:41.882Z,14.70
2019-04-14T08:46:41.664Z,14.50
2019-04-14T08:47:41.711Z,14.40
2019-04-14T08:48:41.658Z,14.10
2019-04-14T08:49:41.651Z,14.20
2019-04-14T08:50:41.671Z,13.20
2019-04-14T08:51:41.645Z,13.50
2019-04-14T08:52:41.846Z,13.70
2019-04-14T08:53:41.637Z,13.70
2019-04-14T08:54:41.633Z,13.90
2019-04-14T08:55:41.626Z,14.00
2019-04-14T08:56:41.622Z,13.70
2019-04-14T08:57:41.618Z,13.60
2019-04-14T08:58:41.630Z,14.00
2019-04-14T08:59:41.616Z,13.50
2019-04-14T09:00:41.629Z,14.40
2019-04-14T09:01:41.602Z,13.70
2019-04-14T09:02:41.598Z,13.90
2019-04-14T09:03:41.596Z,14.00
2019-04-14T09:04:41.795Z,13.00
2019-04-14T09:05:41.591Z,13.20
2019-04-14T09:06:41.578Z,13.80
2019-04-14T09:07:41.584Z,13.90
2019-04-14T09:08:41.577Z,14.00
2019-04-14T09:09:41.575Z,14.00
2019-04-14T09:10:41.567Z,13.80
2019-04-14T09:11:41.561Z,14.00
2019-04-14T09:12:41.547Z,13.20
2019-04-14T09:13:41.541Z,14.00
2019-04-14T09:14:41.534Z,14.60
2019-04-14T09:15:41.535Z,13.80
2019-04-14T09:16:41.524Z,13.60
2019-04-14T09:17:41.516Z,13.50
2019-04-14T09:18:41.828Z,13.80
2019-04-14T09:19:41.516Z,14.00
2019-04-14T09:20:51.703Z,14.30
2019-04-14T09:21:41.492Z,13.90
2019-04-14T09:22:41.489Z,14.70
2019-04-14T09:23:41.480Z,13.20
2019-04-14T09:24:41.473Z,14.00
2019-04-14T09:25:41.463Z,14.00
2019-04-14T09:26:41.499Z,14.10
2019-04-14T09:27:41.458Z,14.00
2019-04-14T09:28:41.449Z,13.60
2019-04-14T09:29:41.448Z,14.10
2019-04-14T09:30:41.429Z,13.80
2019-04-14T09:31:41.418Z,13.60
2019-04-14T09:32:41.411Z,13.10
2019-04-14T09:33:41.404Z,13.00
2019-04-14T09:34:41.398Z,12.90
2019-04-14T09:35:41.387Z,13.10
2019-04-14T09:36:41.386Z,13.60
2019-04-14T09:37:41.371Z,13.00
2019-04-14T09:38:41.361Z,12.80
2019-04-14T09:39:41.353Z,12.80
2019-04-14T09:40:41.353Z,12.90
2019-04-14T09:41:41.338Z,12.50
2019-04-14T09:42:41.330Z,12.50
2019-04-14T09:43:41.322Z,13.40
2019-04-14T09:44:41.307Z,13.00
2019-04-14T09:45:41.299Z,12.60
2019-04-14T09:46:41.293Z,13.00
2019-04-14T09:47:41.307Z,12.90
2019-04-14T09:48:42.896Z,14.80
2019-04-14T09:49:41.273Z,16.50
2019-04-14T09:50:41.256Z,15.40
2019-04-14T09:51:41.243Z,14.60
2019-04-14T09:52:41.239Z,15.10
2019-04-14T09:53:41.224Z,14.20
2019-04-14T09:54:41.214Z,13.20
2019-04-14T09:55:41.212Z,12.80
2019-04-14T09:56:41.198Z,12.70
2019-04-14T09:57:41.196Z,12.90
2019-04-14T09:58:41.178Z,12.90
2019-04-14T09:59:41.173Z,12.80
2019-04-14T10:00:41.187Z,13.20
2019-04-14T10:01:41.151Z,12.30
2019-04-14T10:02:41.131Z,13.30
2019-04-14T10:03:41.121Z,12.80
2019-04-14T10:04:41.113Z,12.80
2019-04-14T10:05:41.106Z,12.60
2019-04-14T10:06:41.162Z,13.20
2019-04-14T10:07:41.136Z,12.50
2019-04-14T10:08:41.073Z,13.40
2019-04-14T10:09:41.052Z,13.50
2019-04-14T10:10:41.048Z,12.80
2019-04-14T10:11:48.465Z,13.60
2019-04-14T10:12:41.073Z,12.80
2019-04-14T10:13:41.005Z,13.70
2019-04-14T10:14:40.996Z,13.00
2019-04-14T10:15:40.981Z,13.60
2019-04-14T10:16:40.976Z,13.60
2019-04-14T10:17:40.971Z,13.80
2019-04-14T10:18:40.951Z,14.00
2019-04-14T10:19:40.941Z,14.20
2019-04-14T10:20:40.923Z,13.60
2019-04-14T10:21:40.914Z,14.70
2019-04-14T10:22:40.901Z,14.10
2019-04-14T10:23:40.888Z,14.30
2019-04-14T10:24:40.882Z,14.40
2019-04-14T10:25:40.864Z,13.50
2019-04-14T10:26:40.852Z,14.00
2019-04-14T10:27:40.843Z,13.10
2019-04-14T10:28:40.829Z,13.30
2019-04-14T10:29:40.820Z,13.90
2019-04-14T10:30:40.808Z,14.60
2019-04-14T10:31:40.794Z,14.00
2019-04-14T10:32:40.779Z,14.30
2019-04-14T10:33:40.766Z,14.70
2019-04-14T10:34:40.780Z,14.70
2019-04-14T10:35:40.747Z,14.30
2019-04-14T10:36:40.733Z,14.40
2019-04-14T10:37:40.724Z,15.20
2019-04-14T10:38:40.709Z,14.20
2019-04-14T10:39:40.694Z,14.20
2019-04-14T10:40:40.680Z,14.70
2019-04-14T10:41:40.668Z,14.50
2019-04-14T10:42:40.656Z,15.40
2019-04-14T10:43:40.646Z,14.70
2019-04-14T10:44:40.631Z,15.50
2019-04-14T10:45:40.629Z,16.10
2019-04-14T10:46:40.612Z,15.60
2019-04-14T10:47:40.594Z,14.40
2019-04-14T10:48:40.609Z,15.60
2019-04-14T10:49:40.569Z,17.70
2019-04-14T10:50:40.558Z,16.00
2019-04-14T10:51:40.544Z,18.10
2019-04-14T10:52:40.532Z,17.50
2019-04-14T10:53:40.525Z,16.40
2019-04-14T10:54:40.508Z,16.30
2019-04-14T10:55:40.495Z,15.90
2019-04-14T10:56:40.486Z,16.50
2019-04-14T10:57:40.467Z,15.60
2019-04-14T10:58:40.458Z,15.30
2019-04-14T10:59:40.445Z,15.30
2019-04-14T11:00:40.437Z,15.30
2019-04-14T11:01:40.418Z,15.90
2019-04-14T11:02:40.407Z,16.50
2019-04-14T11:03:40.402Z,15.70
2019-04-14T11:04:40.388Z,16.30
2019-04-14T11:05:40.372Z,16.10
2019-04-14T11:06:40.358Z,15.80
2019-04-14T11:07:40.353Z,16.80
2019-04-14T11:08:40.331Z,15.70
2019-04-14T11:09:40.318Z,15.60
2019-04-14T11:10:40.315Z,15.40
2019-04-14T11:11:40.323Z,14.90
2019-04-14T11:12:40.287Z,16.30
2019-04-14T11:13:40.269Z,16.20
2019-04-14T11:14:40.256Z,15.60
2019-04-14T11:15:40.249Z,15.20
2019-04-14T11:16:40.233Z,15.70
2019-04-14T11:17:40.225Z,16.20
2019-04-14T11:18:40.213Z,15.50
2019-04-14T11:19:40.191Z,15.80
2019-04-14T11:20:40.180Z,15.60
2019-04-14T11:21:42.620Z,14.90
2019-04-14T11:22:40.153Z,15.90
2019-04-14T11:23:40.149Z,16.40
2019-04-14T11:24:40.140Z,15.50
2019-04-14T11:25:40.127Z,14.90
2019-04-14T11:26:40.418Z,15.60
2019-04-14T11:27:40.101Z,15.60
2019-04-14T11:28:40.073Z,15.50
2019-04-14T11:29:40.063Z,16.80
2019-04-14T11:30:40.085Z,16.00
2019-04-14T11:31:40.041Z,15.60
2019-04-14T11:32:40.029Z,15.40
2019-04-14T11:33:40.006Z,16.10
2019-04-14T11:34:39.996Z,16.00
2019-04-14T11:35:39.986Z,15.40
2019-04-14T11:36:39.976Z,15.70
2019-04-14T11:37:39.952Z,15.80
2019-04-14T11:38:39.939Z,15.30
2019-04-14T11:39:39.924Z,16.00
2019-04-14T11:40:39.922Z,16.10
2019-04-14T11:41:39.903Z,15.70
2019-04-14T11:42:51.582Z,15.90
2019-04-14T11:43:39.876Z,15.20
2019-04-14T11:44:39.856Z,16.40
2019-04-14T11:45:39.867Z,16.00
2019-04-14T11:46:39.829Z,16.40
2019-04-14T11:47:39.814Z,15.50
2019-04-14T11:48:39.803Z,16.20
2019-04-14T11:49:39.787Z,15.50
2019-04-14T11:50:39.777Z,16.20
2019-04-14T11:51:39.755Z,15.50
2019-04-14T11:52:39.748Z,15.00
2019-04-14T11:53:39.727Z,15.50
2019-04-14T11:54:40.042Z,15.20
2019-04-14T11:55:39.713Z,15.60
2019-04-14T11:56:39.697Z,15.50
2019-04-14T11:57:39.670Z,15.90
2019-04-14T11:58:39.669Z,14.80
2019-04-14T11:59:39.642Z,15.30
2019-04-14T12:00:39.631Z,14.60
2019-04-14T12:01:39.629Z,15.00
2019-04-14T12:02:39.625Z,14.80
2019-04-14T12:03:39.592Z,14.90
2019-04-14T12:04:39.579Z,15.20
2019-04-14T12:05:39.558Z,15.70
2019-04-14T12:06:39.540Z,17.10
2019-04-14T12:07:39.539Z,16.70
2019-04-14T12:08:39.523Z,15.70
2019-04-14T12:09:39.503Z,15.80
2019-04-14T12:10:39.489Z,15.20
2019-04-14T12:11:39.468Z,14.80
2019-04-14T12:12:39.510Z,13.70
2019-04-14T12:13:39.440Z,14.60
2019-04-14T12:14:39.445Z,14.30
2019-04-14T12:15:39.411Z,14.20
2019-04-14T12:16:39.397Z,14.50
2019-04-14T12:17:39.384Z,14.60
2019-04-14T12:18:39.693Z,14.00
2019-04-14T12:19:39.359Z,14.10
2019-04-14T12:20:39.344Z,14.30
2019-04-14T12:21:39.333Z,13.80
2019-04-14T12:22:39.317Z,14.80
2019-04-14T12:23:39.311Z,14.80
2019-04-14T12:24:39.284Z,14.20
2019-04-14T12:25:39.275Z,14.80
2019-04-14T12:26:39.326Z,15.50
2019-04-14T12:27:39.746Z,15.30
2019-04-14T12:28:40.374Z,15.20
2019-04-14T12:29:39.263Z,14.30
2019-04-14T12:30:39.908Z,15.30
2019-04-14T12:31:39.629Z,14.90
2019-04-14T12:32:39.176Z,15.60
2019-04-14T12:33:39.163Z,15.60
2019-04-14T12:34:39.156Z,15.00
2019-04-14T12:35:39.133Z,14.90
2019-04-14T12:36:39.234Z,15.00
2019-04-14T12:37:39.103Z,14.90
2019-04-14T12:38:39.092Z,15.70
2019-04-14T12:39:39.085Z,16.00
2019-04-14T12:40:40.210Z,14.50
2019-04-14T12:41:39.938Z,14.80
2019-04-14T12:42:39.041Z,15.00
2019-04-14T12:43:39.017Z,14.60
2019-04-14T12:44:39.013Z,15.10
2019-04-14T12:45:38.994Z,14.40
2019-04-14T12:46:38.985Z,14.80
2019-04-14T12:47:40.394Z,14.40
2019-04-14T12:48:38.955Z,14.80
2019-04-14T12:49:38.927Z,13.90
2019-04-14T12:50:38.918Z,15.00
2019-04-14T12:51:38.904Z,14.50
2019-04-14T12:52:38.891Z,14.40
2019-04-14T12:53:38.874Z,14.40
2019-04-14T12:54:38.866Z,14.40
2019-04-14T12:55:38.845Z,15.10
2019-04-14T12:56:38.832Z,14.90
2019-04-14T12:57:38.818Z,14.60
2019-04-14T12:58:38.808Z,14.10
2019-04-14T12:59:38.792Z,14.60
2019-04-14T13:00:38.778Z,15.00
2019-04-14T13:01:38.760Z,16.90
2019-04-14T13:02:38.737Z,15.40
2019-04-14T13:03:41.610Z,14.60